Latest Coastal Weather Observations for Darwin Harbour

IDD60701

Issued at 7:55 am CST Friday 25 April 2014 (issued every 10 minutes, with the page automatically refreshed every 10 minutes)

About coastal observations | Map of coastal stations | Coastal observations for NT | Marine services | Other Formats
Station Details ID: 014072 Name: DARWIN NTC AWS Lat: -12.47 Lon: 130.85 Height: 0.0 m
Data from the previous 72 hours. | See also: Recent months for locations in Northern Territory
Date/Time
CST
Temp

°C
Wind Pressure Rain
since 9am
mm
Weather Cloud Vis
km
Sea
Height
m
Swell
Dir
 
Speed
knots
Gust
knots
hPa Trend Height
m
Period
s
Dir
25/07:30am 27.8 WSW 4 7 1007.9 - - - - - - - - -
25/07:00am 27.9 SW 6 9 1007.6 - - - - - - - - -
25/06:30am 27.8 SW 7 10 1007.0 - - - - - - - - -
25/06:00am 27.6 WSW 8 11 1006.4 - - - - - - - - -
25/05:30am 28.3 SW 8 12 1006.2 - - - - - - - - -
25/05:00am 27.9 SW 9 11 1006.3 - - - - - - - - -
25/04:30am 28.0 SW 9 11 1006.0 - - - - - - - - -
25/04:00am 28.1 WSW 8 11 1006.0 - - - - - - - - -
25/03:30am 28.0 SW 8 10 1005.9 - - - - - - - - -
25/03:00am 28.2 SW 8 9 1005.9 - - - - - - - - -
25/02:30am 28.3 WSW 8 11 1006.1 - - - - - - - - -
25/02:00am 28.4 WSW 9 12 1006.5 - - - - - - - - -
25/01:30am 28.4 WSW 9 11 1006.5 - - - - - - - - -
25/01:00am 28.6 WSW 9 11 1007.0 - - - - - - - - -
25/12:30am 28.6 WSW 8 11 1007.2 - - - - - - - - -
25/12:00am 28.8 WSW 8 10 1007.5 - - - - - - - - -
 
Date/Time
CST
Temp

°C
Wind Pressure Rain
since 9am
mm
Weather Cloud Vis
km
Sea
Height
m
Swell
Dir
 
Speed
knots
Gust
knots
hPa Trend Height
m
Period
s
Dir
24/11:30pm 29.0 W 7 10 1007.7 - - - - - - - - -
24/11:00pm 29.2 W 5 8 1008.0 - - - - - - - - -
24/10:30pm 29.3 W 5 8 1008.1 - - - - - - - - -
24/10:00pm 29.3 W 6 8 1008.0 - - - - - - - - -
24/09:30pm 29.1 WNW 6 8 1007.9 - - - - - - - - -
24/09:00pm 29.2 WNW 5 7 1007.6 - - - - - - - - -
24/08:30pm 29.3 WNW 5 6 1007.2 - - - - - - - - -
24/08:00pm 29.5 W 6 8 1006.7 - - - - - - - - -
24/07:30pm 29.7 W 8 10 1006.0 - - - - - - - - -
24/07:00pm 29.9 W 7 10 1005.6 - - - - - - - - -
24/06:30pm 30.2 W 6 9 1005.2 - - - - - - - - -
24/06:00pm 30.6 W 7 10 1004.9 - - - - - - - - -
24/05:30pm 31.2 WNW 3 5 1004.5 - - - - - - - - -
24/05:00pm 31.8 WNW 4 6 1004.4 - - - - - - - - -
24/04:30pm 33.0 S 3 4 1004.2 - - - - - - - - -
24/04:00pm 33.1 S 4 5 1004.5 - - - - - - - - -
24/03:30pm 33.1 S 4 7 1004.6 - - - - - - - - -
24/03:00pm 34.3 SE 4 7 1004.9 - - - - - - - - -
24/02:30pm 33.0 S 5 10 1005.2 - - - - - - - - -
24/02:00pm 33.0 SSE 5 8 1005.7 - - - - - - - - -
24/01:30pm 32.1 S 9 11 1005.9 - - - - - - - - -
24/01:00pm 31.7 S 12 16 1006.3 - - - - - - - - -
24/12:30pm 31.1 S 11 14 1006.9 - - - - - - - - -
24/12:00pm 30.5 SSW 7 10 1007.4 - - - - - - - - -
24/11:30am 29.7 SSW 8 10 1008.1 - - - - - - - - -
24/11:00am 29.9 SSE 5 8 1008.9 - - - - - - - - -
24/10:30am 29.1 SSE 5 10 1009.3 - - - - - - - - -
24/10:00am 28.6 S 7 10 1009.4 - - - - - - - - -
24/09:30am 28.1 S 7 9 1009.1 - - - - - - - - -
24/09:00am 28.0 S 6 8 1008.8 - - - - - - - - -
24/08:30am 27.9 SSE 6 10 1008.2 - - - - - - - - -
24/08:00am 27.9 SE 5 9 1008.1 - - - - - - - - -
24/07:30am 27.8 SE 5 9 1007.2 - - - - - - - - -
24/07:00am 27.7 SE 4 8 1006.8 - - - - - - - - -
24/06:30am 27.7 SE 4 7 1006.4 - - - - - - - - -
24/06:00am 27.8 ESE 6 8 1006.2 - - - - - - - - -
24/05:30am 27.6 E 6 8 1005.9 - - - - - - - - -
24/05:00am 27.9 E 6 8 1005.9 - - - - - - - - -
24/04:30am 28.0 E 6 8 1005.6 - - - - - - - - -
24/04:00am 27.9 ENE 5 7 1005.8 - - - - - - - - -
24/03:30am 28.2 E 3 5 1005.7 - - - - - - - - -
24/03:00am 27.8 ENE 3 6 1005.7 - - - - - - - - -
24/02:30am 28.0 ENE 6 8 1006.0 - - - - - - - - -
24/02:00am 27.6 E 7 9 1006.4 - - - - - - - - -
24/01:30am 27.9 ENE 7 12 1006.8 - - - - - - - - -
24/01:00am 28.3 E 9 11 1006.8 - - - - - - - - -
24/12:30am 28.8 SSW 7 8 1007.2 - - - - - - - - -
24/12:00am 28.9 SW 8 10 1007.3 - - - - - - - - -
 
Date/Time
CST
Temp

°C
Wind Pressure Rain
since 9am
mm
Weather Cloud Vis
km
Sea
Height
m
Swell
Dir
 
Speed
knots
Gust
knots
hPa Trend Height
m
Period
s
Dir
23/11:30pm 29.5 WSW 3 5 1007.4 - - - - - - - - -
23/11:00pm 29.5 WNW 2 3 1007.9 - - - - - - - - -
23/10:30pm 29.5 NW 3 4 1007.9 - - - - - - - - -
23/10:00pm 29.7 WNW 2 3 1007.9 - - - - - - - - -
23/09:30pm 29.8 NW 2 3 1007.9 - - - - - - - - -
23/09:00pm 29.7 NW 3 5 1007.4 - - - - - - - - -
23/08:30pm 29.9 NW 2 4 1006.7 - - - - - - - - -
23/08:00pm 29.9 WNW 3 5 1006.4 - - - - - - - - -
23/07:30pm 30.1 N 6 10 1006.1 - - - - - - - - -
23/07:00pm 30.1 NNE 5 10 1006.1 - - - - - - - - -
23/06:30pm 30.7 N 6 12 1005.7 - - - - - - - - -
23/06:00pm 30.7 N 9 14 1005.1 - - - - - - - - -
23/05:30pm 32.8 ENE 2 5 1004.6 - - - - - - - - -
23/05:00pm 32.9 ESE 4 5 1004.3 - - - - - - - - -
23/04:30pm 32.5 ESE 6 7 1004.2 - - - - - - - - -
23/04:00pm 32.8 E 7 11 1004.4 - - - - - - - - -
23/03:30pm 33.2 SSE 7 10 1004.4 - - - - - - - - -
23/03:00pm 32.8 S 10 13 1004.7 - - - - - - - - -
23/02:30pm 32.3 S 9 11 1005.3 - - - - - - - - -
23/02:00pm 32.0 S 9 12 1005.7 - - - - - - - - -
23/01:30pm 31.7 S 11 14 1006.1 - - - - - - - - -
23/01:00pm 31.3 S 14 17 1006.6 - - - - - - - - -
23/12:30pm 31.1 S 11 14 1006.8 - - - - - - - - -
23/12:00pm 30.5 S 10 12 1007.1 - - - - - - - - -
23/11:30am 30.1 S 10 12 1007.8 - - - - - - - - -
23/11:00am 30.0 SE 6 9 1008.6 - - - - - - - - -
23/10:30am 29.1 SE 8 11 1008.8 - - - - - - - - -
23/10:00am 28.6 SSE 9 13 1009.0 - - - - - - - - -
23/09:30am 28.4 SE 10 12 1008.9 - - - - - - - - -
23/09:00am 27.9 SE 8 10 1009.1 - - - - - - - - -
23/08:30am 28.0 ESE 9 11 1008.8 - - - - - - - - -
23/08:00am 28.0 E 5 7 1008.9 - - - - - - - - -
23/07:30am 27.6 E 5 7 1008.7 - - - - - - - - -
23/07:00am 27.8 E 6 8 1008.5 - - - - - - - - -
23/06:30am 27.8 E 4 7 1008.1 - - - - - - - - -
23/06:00am 28.2 ESE 5 6 1008.1 - - - - - - - - -
23/05:30am 28.2 ESE 5 6 1008.0 - - - - - - - - -
23/05:00am 27.7 ENE 3 5 1007.9 - - - - - - - - -
23/04:30am 28.4 E 4 7 1007.7 - - - - - - - - -
23/04:00am 28.7 SE 7 9 1007.4 - - - - - - - - -
23/03:30am 29.3 SE 7 10 1007.2 - - - - - - - - -
23/03:00am 29.6 SE 7 9 1007.1 - - - - - - - - -
23/02:30am 30.3 SE 6 9 1007.3 - - - - - - - - -
23/02:00am 30.4 SSE 3 5 1007.7 - - - - - - - - -
23/01:30am 30.3 SE 1 2 1008.0 - - - - - - - - -
23/01:00am 30.1 NW 2 3 1008.6 - - - - - - - - -
23/12:30am 30.1 WNW 1 2 1008.8 - - - - - - - - -
23/12:00am 30.1 N 2 3 1009.0 - - - - - - - - -
 
Date/Time
CST
Temp

°C
Wind Pressure Rain
since 9am
mm
Weather Cloud Vis
km
Sea
Height
m
Swell
Dir
 
Speed
knots
Gust
knots
hPa Trend Height
m
Period
s
Dir
22/11:30pm 29.8 N 3 5 1009.5 - - - - - - - - -
22/11:00pm 29.6 N 3 6 1009.6 - - - - - - - - -
22/10:30pm 30.0 N 4 7 1009.4 - - - - - - - - -
22/10:00pm 30.2 NE 4 9 1009.5 - - - - - - - - -
22/09:30pm 30.3 SW 5 7 1008.7 - - - - - - - - -
22/09:00pm 30.8 SSW 5 7 1008.4 - - - - - - - - -
22/08:30pm 31.1 SSW 2 3 1008.5 - - - - - - - - -
22/08:00pm 31.9 SSW 1 2 1008.2 - - - - - - - - -
22/07:30pm 31.4 NE 2 3 1007.7 - - - - - - - - -
22/07:00pm 31.7 E 3 5 1007.4 - - - - - - - - -
22/06:30pm 32.2 E 5 6 1007.0 - - - - - - - - -
22/06:00pm 32.4 E 6 9 1006.7 - - - - - - - - -
22/05:30pm 32.5 E 9 11 1006.4 - - - - - - - - -
22/05:00pm 32.4 ESE 9 11 1006.3 - - - - - - - - -
22/04:30pm 32.7 SSE 8 12 1005.8 - - - - - - - - -
22/04:00pm 32.7 SSE 9 15 1005.7 - - - - - - - - -
22/03:30pm 32.4 SSE 11 16 1005.6 - - - - - - - - -
22/03:00pm 32.0 ESE 8 10 1006.1 - - - - - - - - -
22/02:30pm 31.9 SE 10 15 1006.5 - - - - - - - - -
22/02:00pm 31.1 ESE 9 11 1007.1 - - - - - - - - -
22/01:30pm 31.5 E 7 11 1007.6 - - - - - - - - -
22/01:00pm 30.6 E 10 14 1008.1 - - - - - - - - -
22/12:30pm 30.4 ESE 11 15 1008.6 - - - - - - - - -
22/12:00pm 29.8 ESE 9 12 1009.2 - - - - - - - - -
22/11:30am 29.4 ESE 11 14 1009.9 - - - - - - - - -
22/11:00am 29.1 ESE 9 12 1010.5 - - - - - - - - -
22/10:30am 28.8 ESE 10 13 1010.7 - - - - - - - - -
22/10:00am 28.3 E 12 15 1011.1 - - - - - - - - -
22/09:30am 27.9 E 11 14 1010.9 - - - - - - - - -
22/09:00am 27.8 E 11 14 1010.7 - - - - - - - - -
22/08:30am 27.7 E 12 15 1010.5 - - - - - - - - -
22/08:00am 27.3 E 12 14 1010.4 - - - - - - - - -

Other Formats:

Comma delimited format used in spreadsheet applications
http://www.bom.gov.au/fwo/IDD60701/IDD60701.95122.axf

JavaScript Object Notation format (JSON) in row-major order
http://www.bom.gov.au/fwo/IDD60701/IDD60701.95122.json